createdAt,value
2022-09-03T00:02:17.058Z,101387.44
2022-09-03T00:04:57.537Z,101390.88
2022-09-03T00:07:35.615Z,101390.88
2022-09-03T00:10:08.912Z,101390.84
2022-09-03T00:12:46.218Z,101386.34
2022-09-03T00:15:18.204Z,101391.63
2022-09-03T00:17:51.826Z,101386.25
2022-09-03T00:20:25.461Z,101387.03
2022-09-03T00:22:58.035Z,101391.44
2022-09-03T00:25:34.003Z,101388.69
2022-09-03T00:28:15.480Z,101378.03
2022-09-03T00:30:49.044Z,101385.09
2022-09-03T00:33:24.239Z,101386.78
2022-09-03T00:36:00.853Z,101378.72
2022-09-03T00:38:32.764Z,101376.91
2022-09-03T00:41:11.948Z,101377.72
2022-09-03T00:43:57.565Z,101382.06
2022-09-03T00:46:33.541Z,101382.94
2022-09-03T00:49:23.530Z,101388.22
2022-09-03T00:52:03.201Z,101383.69
2022-09-03T00:54:40.648Z,101373.03
2022-09-03T00:57:25.974Z,101380.13
2022-09-03T01:00:06.497Z,101382.75
2022-09-03T01:02:49.424Z,101374.75
2022-09-03T01:05:30.729Z,101378.22
2022-09-03T01:08:17.048Z,101386.16
2022-09-03T01:10:56.241Z,101381.69
2022-09-03T01:13:34.853Z,101378.06
2022-09-03T01:16:19.751Z,101382.50
2022-09-03T01:18:59.669Z,101389.56
2022-09-03T01:21:48.209Z,101377.97
2022-09-03T01:24:47.725Z,101380.50
2022-09-03T01:27:30.361Z,101395.47
2022-09-03T01:30:07.112Z,101392.72
2022-09-03T01:32:46.514Z,101392.69
2022-09-03T01:35:27.185Z,101389.06
2022-09-03T01:38:15.383Z,101383.75
2022-09-03T01:40:53.779Z,101387.25
2022-09-03T01:43:45.379Z,101381.03
2022-09-03T01:46:25.525Z,101380.13
2022-09-03T01:49:03.570Z,101379.16
2022-09-03T01:51:34.723Z,101376.41
2022-09-03T01:54:23.800Z,101379.94
2022-09-03T01:57:35.183Z,101379.94
2022-09-03T02:00:10.571Z,101383.41
2022-09-03T02:02:44.170Z,101383.41
2022-09-03T02:05:16.304Z,101386.97
2022-09-03T02:07:48.537Z,101389.63
2022-09-03T02:10:21.883Z,101383.53
2022-09-03T02:12:56.467Z,101392.38
2022-09-03T02:15:28.759Z,101379.06
2022-09-03T02:18:06.368Z,101384.41
2022-09-03T02:20:36.721Z,101380.00
2022-09-03T02:23:06.540Z,101382.63
2022-09-03T02:25:40.859Z,101382.63
2022-09-03T02:28:17.204Z,101378.19
2022-09-03T02:30:48.501Z,101383.47
2022-09-03T02:33:21.109Z,101373.63
2022-09-03T02:35:50.871Z,101379.84
2022-09-03T02:38:23.107Z,101369.22
2022-09-03T02:40:54.604Z,101371.00
2022-09-03T02:43:30.909Z,101368.31
2022-09-03T02:46:05.957Z,101370.06
2022-09-03T02:48:38.861Z,101376.22
2022-09-03T02:51:14.364Z,101375.31
2022-09-03T02:53:44.724Z,101380.66
2022-09-03T02:56:15.084Z,101378.00
2022-09-03T02:58:44.828Z,101378.84
2022-09-03T03:01:19.712Z,101374.38
2022-09-03T03:03:56.701Z,101383.13
2022-09-03T03:06:26.688Z,101375.94
2022-09-03T03:08:57.233Z,101378.56
2022-09-03T03:11:27.530Z,101382.06
2022-09-03T03:13:57.265Z,101374.97
2022-09-03T03:16:27.095Z,101382.88
2022-09-03T03:19:00.324Z,101378.38
2022-09-03T03:21:31.020Z,101375.72
2022-09-03T03:24:00.787Z,101373.00
2022-09-03T03:26:30.929Z,101379.16
2022-09-03T03:29:04.782Z,101377.38
2022-09-03T03:31:36.161Z,101380.00
2022-09-03T03:34:08.591Z,101380.03
2022-09-03T03:36:39.218Z,101385.34
2022-09-03T03:39:10.629Z,101383.56
2022-09-03T03:41:41.255Z,101381.75
2022-09-03T03:44:11.708Z,101385.34
2022-09-03T03:46:42.940Z,101388.88
2022-09-03T03:49:15.280Z,101375.56
2022-09-03T03:51:45.015Z,101380.81
2022-09-03T03:54:17.551Z,101380.78
2022-09-03T03:56:55.812Z,101380.78
2022-09-03T03:59:25.790Z,101380.78
2022-09-03T04:01:57.924Z,101380.78
2022-09-03T04:04:30.344Z,101380.72
2022-09-03T04:07:00.107Z,101377.16
2022-09-03T04:09:29.849Z,101381.56
2022-09-03T04:12:00.092Z,101383.28
2022-09-03T04:14:30.562Z,101373.56
2022-09-03T04:17:00.433Z,101378.91
2022-09-03T04:19:33.164Z,101379.78
2022-09-03T04:22:03.277Z,101377.97
2022-09-03T04:24:33.052Z,101389.53
2022-09-03T04:27:02.805Z,101382.44
2022-09-03T04:29:32.728Z,101381.56
2022-09-03T04:32:23.654Z,101378.91
2022-09-03T04:34:56.032Z,101378.97
2022-09-03T04:37:25.866Z,101366.56
2022-09-03T04:39:55.645Z,101368.34
2022-09-03T04:42:25.418Z,101367.41
2022-09-03T04:44:55.204Z,101367.41
2022-09-03T04:47:24.912Z,101357.69
2022-09-03T04:49:57.923Z,101363.00
2022-09-03T04:52:30.298Z,101358.53
2022-09-03T04:55:00.231Z,101362.00
2022-09-03T04:57:34.542Z,101362.00
2022-09-03T05:00:04.338Z,101369.97
2022-09-03T05:02:34.128Z,101351.34
2022-09-03T05:05:06.947Z,101359.31
2022-09-03T05:07:39.059Z,101353.09
2022-09-03T05:10:13.138Z,101354.88
2022-09-03T05:12:43.296Z,101360.22
2022-09-03T05:15:13.327Z,101356.69
2022-09-03T05:17:43.060Z,101357.63
2022-09-03T05:20:15.621Z,101368.28
2022-09-03T05:22:45.401Z,101365.66
2022-09-03T05:25:15.239Z,101364.81
2022-09-03T05:27:45.260Z,101368.31
2022-09-03T05:30:15.597Z,101370.03
2022-09-03T05:32:45.528Z,101370.03
2022-09-03T05:35:19.001Z,101370.91
2022-09-03T05:37:51.042Z,101365.59
2022-09-03T05:40:21.204Z,101356.75
2022-09-03T05:42:51.348Z,101358.56
2022-09-03T05:45:21.420Z,101349.72
2022-09-03T05:47:51.191Z,101357.75
2022-09-03T05:50:23.568Z,101352.44
2022-09-03T05:52:53.366Z,101350.72
2022-09-03T05:55:23.154Z,101339.25
2022-09-03T05:57:55.081Z,101343.69
2022-09-03T06:00:24.865Z,101339.31
2022-09-03T06:02:55.507Z,101347.34
2022-09-03T06:05:27.929Z,101345.63
2022-09-03T06:07:57.707Z,101354.56
2022-09-03T06:10:34.410Z,101354.63
2022-09-03T06:13:08.587Z,101351.97
2022-09-03T06:15:38.388Z,101359.19
2022-09-03T06:18:08.623Z,101352.16
2022-09-03T06:20:41.123Z,101357.50
2022-09-03T06:23:10.851Z,101362.03
2022-09-03T06:25:40.583Z,101358.53
2022-09-03T06:28:12.064Z,101357.69
2022-09-03T06:30:42.067Z,101366.59
2022-09-03T06:33:11.952Z,101356.00
2022-09-03T06:35:44.405Z,101352.59
2022-09-03T06:38:15.621Z,101352.69
2022-09-03T06:40:49.974Z,101354.56
2022-09-03T06:43:19.985Z,101354.66
2022-09-03T06:45:56.902Z,101352.09
2022-09-03T06:48:26.977Z,101350.34
2022-09-03T06:51:01.440Z,101353.13
2022-09-03T06:53:32.746Z,101354.13
2022-09-03T06:56:04.493Z,101356.97
2022-09-03T06:58:36.128Z,101345.75
2022-09-03T07:01:09.723Z,101354.00
2022-09-03T07:03:40.952Z,101356.03
2022-09-03T07:06:15.584Z,101350.03
2022-09-03T07:08:46.446Z,101351.13
2022-09-03T07:11:19.613Z,101361.09
2022-09-03T07:13:51.761Z,101355.06
2022-09-03T07:16:23.603Z,101362.34
2022-09-03T07:18:54.186Z,101372.25
2022-09-03T07:21:28.330Z,101369.66
2022-09-03T07:24:00.186Z,101372.41
2022-09-03T07:26:32.729Z,101365.44
2022-09-03T07:29:03.403Z,101367.31
2022-09-03T07:31:35.663Z,101372.75
2022-09-03T07:34:10.072Z,101364.88
2022-09-03T07:36:44.457Z,101358.69
2022-09-03T07:39:15.756Z,101362.31
2022-09-03T07:41:46.140Z,101361.41
2022-09-03T07:44:19.570Z,101356.09
2022-09-03T07:46:51.556Z,101361.44
2022-09-03T07:49:23.253Z,101358.81
2022-09-03T07:51:55.731Z,101364.16
2022-09-03T07:54:27.491Z,101357.94
2022-09-03T07:56:57.526Z,101363.34
2022-09-03T07:59:27.312Z,101358.91
2022-09-03T08:01:57.874Z,101361.56
2022-09-03T08:04:27.578Z,101352.63
2022-09-03T08:07:00.606Z,101359.75
2022-09-03T08:09:30.352Z,101352.59
2022-09-03T08:12:00.062Z,101345.44
2022-09-03T08:14:30.550Z,101347.25
2022-09-03T08:17:00.503Z,101348.13
2022-09-03T08:19:30.220Z,101351.72
2022-09-03T08:22:03.131Z,101347.25
2022-09-03T08:24:34.097Z,101348.13
2022-09-03T08:27:03.829Z,101344.56
2022-09-03T08:29:33.589Z,101343.63
2022-09-03T08:32:05.329Z,101349.84
2022-09-03T08:34:35.332Z,101348.03
2022-09-03T08:37:10.055Z,101339.94
2022-09-03T08:39:39.809Z,101348.78
2022-09-03T08:42:46.529Z,101344.31
2022-09-03T08:45:19.618Z,101349.59
2022-09-03T08:47:52.831Z,101345.13
2022-09-03T08:50:28.811Z,101347.81
2022-09-03T08:53:05.528Z,101347.78
2022-09-03T08:55:42.819Z,101349.56
2022-09-03T08:58:16.438Z,101356.66
2022-09-03T09:00:52.580Z,101349.47
2022-09-03T09:03:38.165Z,101354.78
2022-09-03T09:06:15.359Z,101360.19
2022-09-03T09:09:00.071Z,101350.28
2022-09-03T09:11:43.579Z,101345.75
2022-09-03T09:14:22.293Z,101345.69
2022-09-03T09:17:04.871Z,101351.94
2022-09-03T09:19:49.580Z,101354.53
2022-09-03T09:22:29.987Z,101352.66
2022-09-03T09:25:09.141Z,101350.81
2022-09-03T09:27:38.863Z,101349.97
2022-09-03T09:30:10.187Z,101346.31
2022-09-03T09:32:40.324Z,101338.22
2022-09-03T09:35:12.386Z,101339.97
2022-09-03T09:37:51.045Z,101349.72
2022-09-03T09:40:35.158Z,101347.19
2022-09-03T09:43:16.279Z,101338.25
2022-09-03T09:45:48.540Z,101332.88
2022-09-03T09:48:26.603Z,101335.53
2022-09-03T09:51:07.927Z,101346.97
2022-09-03T09:53:38.007Z,101337.94
2022-09-03T09:56:11.285Z,101341.56
2022-09-03T09:58:41.012Z,101338.00
2022-09-03T10:01:15.930Z,101340.63
2022-09-03T10:03:55.551Z,101333.44
2022-09-03T10:06:39.792Z,101330.66
2022-09-03T10:09:11.576Z,101333.19
2022-09-03T10:11:47.513Z,101331.34
2022-09-03T10:14:25.961Z,101335.78
2022-09-03T10:17:04.092Z,101341.16
2022-09-03T10:19:43.576Z,101326.75
2022-09-03T10:22:20.828Z,101331.22
2022-09-03T10:24:59.938Z,101328.53
2022-09-03T10:27:32.497Z,101331.22
2022-09-03T10:30:02.907Z,101329.41
2022-09-03T10:32:48.367Z,101321.38
2022-09-03T10:35:28.472Z,101336.66
2022-09-03T10:38:07.697Z,101326.84
2022-09-03T10:40:43.913Z,101332.22
2022-09-03T10:43:32.763Z,101318.75
2022-09-03T10:46:06.575Z,101324.03
2022-09-03T10:48:51.907Z,101324.78
2022-09-03T10:51:26.962Z,101319.34
2022-09-03T10:54:26.604Z,101317.41
2022-09-03T10:57:06.415Z,101326.25
2022-09-03T10:59:54.035Z,101323.44
2022-09-03T11:02:42.719Z,101313.31
2022-09-03T11:05:18.308Z,101318.50
2022-09-03T11:07:53.384Z,101322.00
2022-09-03T11:10:30.934Z,101320.19
2022-09-03T11:13:09.248Z,101323.69
2022-09-03T11:15:46.109Z,101312.91
2022-09-03T11:18:23.080Z,101317.28
2022-09-03T11:20:56.478Z,101311.97
2022-09-03T11:23:30.440Z,101311.97
2022-09-03T11:26:05.184Z,101312.84
2022-09-03T11:28:45.570Z,101308.22
2022-09-03T11:31:26.109Z,101299.13
2022-09-03T11:34:02.054Z,101308.84
2022-09-03T11:36:34.423Z,101302.53
2022-09-03T11:39:04.475Z,101301.69
2022-09-03T11:41:38.544Z,101300.72
2022-09-03T11:44:20.428Z,101308.63
2022-09-03T11:47:00.342Z,101298.69
2022-09-03T11:49:33.048Z,101291.44
2022-09-03T11:52:04.506Z,101292.22
2022-09-03T11:54:36.004Z,101295.63
2022-09-03T11:57:16.058Z,101290.09
2022-09-03T11:59:47.304Z,101290.91
2022-09-03T12:02:28.866Z,101291.84
2022-09-03T12:05:19.672Z,101280.19
2022-09-03T12:08:08.813Z,101282.09
2022-09-03T12:10:49.729Z,101280.22
2022-09-03T12:13:43.403Z,101282.81
2022-09-03T12:16:55.080Z,101267.38
2022-09-03T12:19:35.129Z,101272.75
2022-09-03T12:22:05.647Z,101263.81
2022-09-03T12:24:38.296Z,101269.09
2022-09-03T12:27:10.046Z,101269.03
2022-09-03T12:29:40.870Z,101266.44
2022-09-03T12:32:14.512Z,101269.97
2022-09-03T12:34:47.365Z,101266.44
2022-09-03T12:40:21.734Z,101261.34
2022-09-03T12:42:51.815Z,101266.63
2022-09-03T12:45:24.515Z,101255.81
2022-09-03T12:47:54.703Z,101264.75
2022-09-03T12:50:27.772Z,101253.03
2022-09-03T12:53:01.989Z,101261.13
2022-09-03T12:55:40.523Z,101261.81
2022-09-03T12:58:14.918Z,101253.66
2022-09-03T13:00:50.073Z,101258.94
2022-09-03T13:03:23.653Z,101257.97
2022-09-03T13:06:01.505Z,101255.19
2022-09-03T13:08:35.243Z,101258.78
2022-09-03T13:11:07.873Z,101256.19
2022-09-03T13:13:40.898Z,101260.78
2022-09-03T13:16:32.153Z,101259.97
2022-09-03T13:19:13.109Z,101253.75
2022-09-03T13:21:52.500Z,101270.91
2022-09-03T13:24:48.854Z,101261.19
2022-09-03T13:27:26.671Z,101253.28
2022-09-03T13:30:07.740Z,101249.66
2022-09-03T13:32:51.261Z,101254.06
2022-09-03T13:35:32.504Z,101247.78
2022-09-03T13:38:12.205Z,101248.69
2022-09-03T13:40:50.043Z,101260.31
2022-09-03T13:43:30.221Z,101255.91
2022-09-03T13:46:04.868Z,101263.09
2022-09-03T13:48:52.248Z,101254.13
2022-09-03T13:51:29.937Z,101255.88
2022-09-03T13:54:36.401Z,101257.56
2022-09-03T13:57:11.999Z,101259.22
2022-09-03T13:59:50.217Z,101255.59
2022-09-03T14:02:26.831Z,101260.16
2022-09-03T14:05:08.039Z,101249.47
2022-09-03T14:08:02.748Z,101251.38
2022-09-03T14:10:48.909Z,101249.75
2022-09-03T14:13:34.632Z,101255.25
2022-09-03T14:16:10.438Z,101250.75
2022-09-03T14:18:48.444Z,101257.88
2022-09-03T14:21:24.348Z,101256.03
2022-09-03T14:24:04.192Z,101252.56
2022-09-03T14:26:40.027Z,101258.06
2022-09-03T14:29:18.739Z,101251.88
2022-09-03T14:32:07.026Z,101256.44
2022-09-03T14:34:46.666Z,101253.88
2022-09-03T14:37:31.625Z,101247.72
2022-09-03T14:40:14.399Z,101250.53
2022-09-03T14:43:04.148Z,101249.69
2022-09-03T14:45:53.570Z,101253.31
2022-09-03T14:48:40.743Z,101255.16
2022-09-03T14:51:25.680Z,101255.16
2022-09-03T14:54:32.031Z,101254.25
2022-09-03T14:57:15.224Z,101248.81
2022-09-03T15:00:08.215Z,101253.31
2022-09-03T15:03:01.531Z,101252.44
2022-09-03T15:05:53.065Z,101255.16
2022-09-03T15:08:39.379Z,101263.19
2022-09-03T15:11:20.476Z,101252.44
2022-09-03T15:13:55.742Z,101247.13
2022-09-03T15:16:43.989Z,101255.16
2022-09-03T15:19:23.506Z,101257.88
2022-09-03T15:22:09.870Z,101255.22
2022-09-03T15:24:53.599Z,101255.22
2022-09-03T15:27:48.502Z,101255.28
2022-09-03T15:30:21.594Z,101259.84
2022-09-03T15:33:06.591Z,101248.22
2022-09-03T15:35:55.905Z,101256.28
2022-09-03T15:38:42.448Z,101252.72
2022-09-03T15:41:21.532Z,101264.44
2022-09-03T15:43:53.933Z,101250.06
2022-09-03T15:46:42.815Z,101249.16
2022-09-03T15:49:27.733Z,101260.88
2022-09-03T15:52:12.658Z,101260.06
2022-09-03T15:54:49.535Z,101269.91
2022-09-03T15:57:24.924Z,101267.28
2022-09-03T16:00:02.110Z,101262.84
2022-09-03T16:02:37.030Z,101262.94
2022-09-03T16:05:16.511Z,101262.09
2022-09-03T16:08:08.048Z,101260.28
2022-09-03T16:10:57.310Z,101268.34
2022-09-03T16:13:48.285Z,101262.13
2022-09-03T16:16:22.885Z,101269.31
2022-09-03T16:19:02.671Z,101272.00
2022-09-03T16:21:42.112Z,101264.88
2022-09-03T16:24:20.160Z,101268.44
2022-09-03T16:26:57.513Z,101262.19
2022-09-03T16:29:31.565Z,101266.69
2022-09-03T16:32:13.736Z,101268.50
2022-09-03T16:34:53.080Z,101264.97
2022-09-03T16:37:35.441Z,101269.44
2022-09-03T16:40:17.780Z,101258.69
2022-09-03T16:42:54.057Z,101260.50
2022-09-03T16:45:39.597Z,101266.81
2022-09-03T16:48:27.783Z,101260.56
2022-09-03T16:51:13.536Z,101259.75
2022-09-03T16:54:07.636Z,101260.69
2022-09-03T16:56:57.238Z,101263.44
2022-09-03T16:59:50.266Z,101267.94
2022-09-03T17:02:52.355Z,101260.84
2022-09-03T17:05:57.846Z,101253.75
2022-09-03T17:08:36.788Z,101262.81
2022-09-03T17:11:18.379Z,101270.94
2022-09-03T17:14:05.149Z,101266.50
2022-09-03T17:16:48.689Z,101269.25
2022-09-03T17:19:28.444Z,101268.38
2022-09-03T17:22:19.498Z,101271.09
2022-09-03T17:25:00.462Z,101270.28
2022-09-03T17:27:54.715Z,101263.16
2022-09-03T17:30:31.243Z,101271.28
2022-09-03T17:33:35.311Z,101262.31
2022-09-03T17:36:12.236Z,101274.03
2022-09-03T17:39:10.056Z,101267.78
2022-09-03T17:41:48.988Z,101262.47
2022-09-03T17:44:31.155Z,101265.22
2022-09-03T17:47:13.116Z,101263.53
2022-09-03T17:49:50.604Z,101265.41
2022-09-03T17:52:29.808Z,101275.31
2022-09-03T17:55:03.449Z,101266.41
2022-09-03T17:57:41.772Z,101267.34
2022-09-03T18:00:23.882Z,101275.44
2022-09-03T18:02:59.254Z,101276.41
2022-09-03T18:05:32.777Z,101285.44
2022-09-03T18:08:08.408Z,101282.78
2022-09-03T18:10:48.323Z,101287.31
2022-09-03T18:13:27.794Z,101294.53
2022-09-03T18:18:35.023Z,101296.47
2022-09-03T18:21:26.403Z,101303.69
2022-09-03T18:24:18.627Z,101301.94
2022-09-03T18:27:06.317Z,101305.53
2022-09-03T18:29:55.480Z,101307.38
2022-09-03T18:32:40.334Z,101313.72
2022-09-03T18:35:23.704Z,101326.25
2022-09-03T18:38:05.952Z,101329.00
2022-09-03T18:40:56.166Z,101331.72
2022-09-03T18:43:46.173Z,101327.28
2022-09-03T18:47:47.778Z,101339.81
2022-09-03T18:49:49.908Z,101336.25
2022-09-03T18:52:37.596Z,101347.84
2022-09-03T18:55:27.763Z,101335.41
2022-09-03T18:58:22.970Z,101351.47
2022-09-03T19:01:18.977Z,101343.47
2022-09-03T19:04:16.339Z,101348.81
2022-09-03T19:07:10.626Z,101349.72
2022-09-03T19:10:04.208Z,101351.53
2022-09-03T19:12:59.848Z,101356.00
2022-09-03T19:15:46.981Z,101357.84
2022-09-03T19:18:43.603Z,101350.69
2022-09-03T19:21:35.090Z,101357.84
2022-09-03T19:24:21.078Z,101361.41
2022-09-03T19:27:31.225Z,101373.91
2022-09-03T19:30:19.809Z,101376.63
2022-09-03T19:33:17.102Z,101378.41
2022-09-03T19:36:09.345Z,101373.06
2022-09-03T19:39:05.187Z,101381.13
2022-09-03T19:41:59.679Z,101376.66
2022-09-03T19:44:57.514Z,101376.66
2022-09-03T19:47:54.921Z,101383.81
2022-09-03T19:50:40.361Z,101379.34
2022-09-03T19:53:26.474Z,101387.41
2022-09-03T19:56:10.781Z,101390.94
2022-09-03T19:58:58.713Z,101388.25
2022-09-03T20:01:48.431Z,101393.59
2022-09-03T20:04:31.423Z,101393.63
2022-09-03T20:07:15.784Z,101392.75
2022-09-03T20:09:58.816Z,101394.53
2022-09-03T20:12:32.552Z,101398.09
2022-09-03T20:15:06.662Z,101389.19
2022-09-03T20:17:45.812Z,101392.78
2022-09-03T20:20:25.082Z,101398.97
2022-09-03T20:23:00.891Z,101400.78
2022-09-03T20:25:46.484Z,101399.88
2022-09-03T20:28:28.357Z,101397.22
2022-09-03T20:31:07.669Z,101395.44
2022-09-03T20:33:50.691Z,101399.88
2022-09-03T20:36:32.099Z,101407.00
2022-09-03T20:39:16.438Z,101409.66
2022-09-03T20:41:57.416Z,101410.56
2022-09-03T20:44:48.660Z,101406.03
2022-09-03T20:47:48.560Z,101414.06
2022-09-03T20:50:32.748Z,101409.59
2022-09-03T20:53:23.549Z,101410.50
2022-09-03T20:55:56.224Z,101415.84
2022-09-03T20:58:37.734Z,101410.47
2022-09-03T21:01:10.211Z,101415.81
2022-09-03T21:03:53.639Z,101422.94
2022-09-03T21:06:34.350Z,101422.91
2022-09-03T21:09:14.979Z,101415.78
2022-09-03T21:11:54.831Z,101429.13
2022-09-03T21:14:36.133Z,101431.81
2022-09-03T21:17:27.416Z,101423.78
2022-09-03T21:20:14.187Z,101434.47
2022-09-03T21:22:52.919Z,101437.13
2022-09-03T21:25:28.197Z,101442.44
2022-09-03T21:28:02.524Z,101446.88
2022-09-03T21:30:38.226Z,101440.69
2022-09-03T21:33:12.463Z,101454.00
2022-09-03T21:35:48.174Z,101445.09
2022-09-03T21:38:23.537Z,101445.97
2022-09-03T21:41:02.850Z,101448.66
2022-09-03T21:43:38.213Z,101455.78
2022-09-03T21:46:12.466Z,101455.78
2022-09-03T21:48:50.109Z,101462.88
2022-09-03T21:51:28.432Z,101456.66
2022-09-03T21:54:04.084Z,101457.56
2022-09-03T21:56:50.938Z,101459.34
2022-09-03T21:59:35.646Z,101457.50
2022-09-03T22:02:12.870Z,101461.06
2022-09-03T22:04:42.595Z,101452.13
2022-09-03T22:07:24.409Z,101451.22
2022-09-03T22:10:02.267Z,101460.97
2022-09-03T22:12:40.069Z,101451.16
2022-09-03T22:15:14.665Z,101447.59
2022-09-03T22:17:57.033Z,101458.25
2022-09-03T22:20:28.176Z,101459.16
2022-09-03T22:23:07.612Z,101462.69
2022-09-03T22:25:44.530Z,101450.16
2022-09-03T22:28:25.822Z,101450.16
2022-09-03T22:31:03.775Z,101457.25
2022-09-03T22:33:40.973Z,101456.31
2022-09-03T22:36:16.984Z,101458.06
2022-09-03T22:39:12.485Z,101457.13
2022-09-03T22:42:04.578Z,101457.13
2022-09-03T22:45:07.439Z,101457.06
2022-09-03T22:47:56.151Z,101451.69
2022-09-03T22:50:33.992Z,101457.00
2022-09-03T22:53:12.887Z,101460.53
2022-09-03T22:55:57.362Z,101458.72
2022-09-03T22:58:32.738Z,101460.47
2022-09-03T23:01:10.890Z,101464.03
2022-09-03T23:03:48.477Z,101464.84
2022-09-03T23:06:27.824Z,101466.63
2022-09-03T23:09:03.896Z,101468.34
2022-09-03T23:11:43.951Z,101467.41
2022-09-03T23:14:18.076Z,101467.38
2022-09-03T23:16:53.000Z,101475.31
2022-09-03T23:19:33.598Z,101474.41
2022-09-03T23:22:07.480Z,101474.38
2022-09-03T23:24:41.643Z,101471.63
2022-09-03T23:27:20.253Z,101476.94
2022-09-03T23:29:54.120Z,101480.44
2022-09-03T23:32:25.539Z,101478.59
2022-09-03T23:35:00.525Z,101476.72
2022-09-03T23:37:56.484Z,101487.38
2022-09-03T23:40:37.432Z,101486.47
2022-09-03T23:43:29.139Z,101493.53
2022-09-03T23:46:08.113Z,101479.31
2022-09-03T23:48:50.767Z,101481.09
2022-09-03T23:51:29.304Z,101481.94
2022-09-03T23:54:10.371Z,101484.56
2022-09-03T23:56:55.152Z,101480.09
2022-09-03T23:59:34.359Z,101486.22
